< < Back
Terminal Aerodrome Forecast


Current Version              Previous Versions:   1  2  3  4  5  6  7  8  9  

Terminal Aerodrome Forecast

940
FTUS42 KTAE 031735
TAFABY
TAF
KABY 031735Z 0318/0418 22010KT P6SM SCT025
     FM040100 21006KT P6SM SCT250
     FM040900 VRB03KT 2SM BR BKN015
     FM041300 24004KT P6SM SCT030=



Latest METAR

596
SAUS70 KWBC 040700 RRA
MTRABY
METAR KABY 040653Z AUTO 23004KT 10SM CLR 25/22 A3007 RMK AO2 SLP180
T02500222


USA.gov is the U.S. government's official web portal to all federal, state and local government web resources and services.